sensor_id;sensor_type;location;lat;lon;timestamp;P1;durP1;ratioP1;P2;durP2;ratioP2
72109;SDS011;59983;52.010;5.420;2022-12-01T00:01:04;40.00;;;22.35;;
72109;SDS011;59983;52.010;5.420;2022-12-01T00:03:31;32.00;;;22.00;;
72109;SDS011;59983;52.010;5.420;2022-12-01T00:08:25;36.08;;;22.08;;
72109;SDS011;59983;52.010;5.420;2022-12-01T00:10:52;40.42;;;23.23;;
72109;SDS011;59983;52.010;5.420;2022-12-01T00:13:19;35.88;;;23.63;;
72109;SDS011;59983;52.010;5.420;2022-12-01T00:15:46;30.98;;;21.20;;
72109;SDS011;59983;52.010;5.420;2022-12-01T00:18:13;36.17;;;21.33;;
72109;SDS011;59983;52.010;5.420;2022-12-01T00:20:39;32.13;;;22.40;;
72109;SDS011;59983;52.010;5.420;2022-12-01T00:23:06;33.47;;;21.27;;
72109;SDS011;59983;52.010;5.420;2022-12-01T00:25:33;30.67;;;20.85;;
72109;SDS011;59983;52.010;5.420;2022-12-01T00:27:59;36.42;;;22.40;;
72109;SDS011;59983;52.010;5.420;2022-12-01T00:30:26;35.00;;;21.60;;
72109;SDS011;59983;52.010;5.420;2022-12-01T00:32:52;33.42;;;21.85;;
72109;SDS011;59983;52.010;5.420;2022-12-01T00:35:19;37.33;;;23.25;;
72109;SDS011;59983;52.010;5.420;2022-12-01T00:37:45;34.63;;;21.90;;
72109;SDS011;59983;52.010;5.420;2022-12-01T00:40:12;35.03;;;22.70;;
72109;SDS011;59983;52.010;5.420;2022-12-01T00:42:38;37.10;;;22.57;;
72109;SDS011;59983;52.010;5.420;2022-12-01T00:45:06;40.70;;;22.40;;
72109;SDS011;59983;52.010;5.420;2022-12-01T00:47:32;33.95;;;22.08;;
72109;SDS011;59983;52.010;5.420;2022-12-01T00:49:59;35.47;;;23.08;;
72109;SDS011;59983;52.010;5.420;2022-12-01T00:52:25;36.03;;;22.23;;
72109;SDS011;59983;52.010;5.420;2022-12-01T00:54:52;35.10;;;24.00;;
72109;SDS011;59983;52.010;5.420;2022-12-01T00:57:18;34.80;;;22.23;;
72109;SDS011;59983;52.010;5.420;2022-12-01T00:59:45;41.33;;;23.40;;
72109;SDS011;59983;52.010;5.420;2022-12-01T01:02:12;37.65;;;23.10;;
72109;SDS011;59983;52.010;5.420;2022-12-01T01:04:39;39.40;;;24.15;;
72109;SDS011;59983;52.010;5.420;2022-12-01T01:07:05;40.57;;;22.90;;
72109;SDS011;59983;52.010;5.420;2022-12-01T01:09:32;38.05;;;22.88;;
72109;SDS011;59983;52.010;5.420;2022-12-01T01:11:58;41.25;;;24.23;;
72109;SDS011;59983;52.010;5.420;2022-12-01T01:14:25;38.33;;;22.33;;
72109;SDS011;59983;52.010;5.420;2022-12-01T01:16:51;36.40;;;23.15;;
72109;SDS011;59983;52.010;5.420;2022-12-01T01:19:19;42.57;;;24.30;;
72109;SDS011;59983;52.010;5.420;2022-12-01T01:21:45;42.92;;;26.08;;
72109;SDS011;59983;52.010;5.420;2022-12-01T01:24:12;42.08;;;25.58;;
72109;SDS011;59983;52.010;5.420;2022-12-01T01:26:38;44.03;;;24.90;;
72109;SDS011;59983;52.010;5.420;2022-12-01T01:29:05;42.03;;;25.67;;
72109;SDS011;59983;52.010;5.420;2022-12-01T01:31:35;42.93;;;25.27;;
72109;SDS011;59983;52.010;5.420;2022-12-01T01:34:01;44.00;;;26.85;;
72109;SDS011;59983;52.010;5.420;2022-12-01T01:36:29;44.53;;;25.60;;
72109;SDS011;59983;52.010;5.420;2022-12-01T01:38:55;40.28;;;24.08;;
72109;SDS011;59983;52.010;5.420;2022-12-01T01:41:22;43.97;;;25.13;;
72109;SDS011;59983;52.010;5.420;2022-12-01T01:43:52;40.00;;;24.47;;
72109;SDS011;59983;52.010;5.420;2022-12-01T01:46:25;46.25;;;25.13;;
72109;SDS011;59983;52.010;5.420;2022-12-01T01:51:50;39.85;;;25.20;;
72109;SDS011;59983;52.010;5.420;2022-12-01T01:56:56;39.37;;;23.43;;
72109;SDS011;59983;52.010;5.420;2022-12-01T01:59:27;43.67;;;25.35;;
72109;SDS011;59983;52.010;5.420;2022-12-01T02:02:06;40.88;;;23.13;;
72109;SDS011;59983;52.010;5.420;2022-12-01T02:04:35;41.97;;;23.98;;
72109;SDS011;59983;52.010;5.420;2022-12-01T02:07:06;38.88;;;24.85;;
72109;SDS011;59983;52.010;5.420;2022-12-01T02:09:33;43.33;;;24.30;;
72109;SDS011;59983;52.010;5.420;2022-12-01T02:25:53;37.72;;;22.50;;
72109;SDS011;59983;52.010;5.420;2022-12-01T02:31:22;42.70;;;23.77;;
72109;SDS011;59983;52.010;5.420;2022-12-01T02:34:08;49.70;;;25.67;;
72109;SDS011;59983;52.010;5.420;2022-12-01T02:36:45;38.63;;;24.03;;
72109;SDS011;59983;52.010;5.420;2022-12-01T02:39:27;40.80;;;23.58;;
72109;SDS011;59983;52.010;5.420;2022-12-01T02:42:06;42.33;;;25.83;;
72109;SDS011;59983;52.010;5.420;2022-12-01T02:45:00;42.05;;;24.63;;
72109;SDS011;59983;52.010;5.420;2022-12-01T02:47:31;45.22;;;24.95;;
72109;SDS011;59983;52.010;5.420;2022-12-01T02:49:59;40.30;;;22.87;;
72109;SDS011;59983;52.010;5.420;2022-12-01T02:52:27;45.05;;;24.83;;
72109;SDS011;59983;52.010;5.420;2022-12-01T02:54:54;40.63;;;23.92;;
72109;SDS011;59983;52.010;5.420;2022-12-01T02:57:21;43.83;;;24.65;;
72109;SDS011;59983;52.010;5.420;2022-12-01T02:59:50;44.47;;;25.15;;
72109;SDS011;59983;52.010;5.420;2022-12-01T03:07:55;45.20;;;23.38;;
72109;SDS011;59983;52.010;5.420;2022-12-01T03:13:37;41.03;;;24.88;;
72109;SDS011;59983;52.010;5.420;2022-12-01T03:21:33;45.42;;;24.02;;
72109;SDS011;59983;52.010;5.420;2022-12-01T03:24:18;45.70;;;24.77;;
72109;SDS011;59983;52.010;5.420;2022-12-01T03:26:50;43.80;;;25.17;;
72109;SDS011;59983;52.010;5.420;2022-12-01T03:29:32;38.90;;;23.97;;
72109;SDS011;59983;52.010;5.420;2022-12-01T03:32:02;50.33;;;25.30;;
72109;SDS011;59983;52.010;5.420;2022-12-01T03:34:38;40.83;;;23.58;;
72109;SDS011;59983;52.010;5.420;2022-12-01T03:37:11;52.80;;;25.27;;
72109;SDS011;59983;52.010;5.420;2022-12-01T03:39:43;45.92;;;24.83;;
72109;SDS011;59983;52.010;5.420;2022-12-01T03:42:18;46.43;;;26.03;;
72109;SDS011;59983;52.010;5.420;2022-12-01T03:44:53;44.20;;;25.00;;
72109;SDS011;59983;52.010;5.420;2022-12-01T03:47:26;45.58;;;24.25;;
72109;SDS011;59983;52.010;5.420;2022-12-01T03:49:57;47.33;;;24.33;;
72109;SDS011;59983;52.010;5.420;2022-12-01T03:55:06;47.90;;;23.87;;
72109;SDS011;59983;52.010;5.420;2022-12-01T04:00:24;43.17;;;23.88;;
72109;SDS011;59983;52.010;5.420;2022-12-01T04:02:54;47.40;;;23.00;;
72109;SDS011;59983;52.010;5.420;2022-12-01T04:05:21;42.63;;;22.58;;
72109;SDS011;59983;52.010;5.420;2022-12-01T04:07:51;43.70;;;24.53;;
72109;SDS011;59983;52.010;5.420;2022-12-01T04:10:18;44.35;;;23.45;;
72109;SDS011;59983;52.010;5.420;2022-12-01T04:12:45;47.47;;;23.88;;
72109;SDS011;59983;52.010;5.420;2022-12-01T04:15:11;46.42;;;23.70;;
72109;SDS011;59983;52.010;5.420;2022-12-01T04:17:39;41.05;;;24.80;;
72109;SDS011;59983;52.010;5.420;2022-12-01T04:20:14;40.50;;;22.30;;
72109;SDS011;59983;52.010;5.420;2022-12-01T04:22:42;42.25;;;22.30;;
72109;SDS011;59983;52.010;5.420;2022-12-01T04:25:09;44.60;;;24.95;;
72109;SDS011;59983;52.010;5.420;2022-12-01T04:27:36;45.55;;;23.70;;
72109;SDS011;59983;52.010;5.420;2022-12-01T04:30:04;43.50;;;22.75;;
72109;SDS011;59983;52.010;5.420;2022-12-01T04:32:36;46.07;;;22.80;;
72109;SDS011;59983;52.010;5.420;2022-12-01T04:35:04;42.65;;;23.02;;
72109;SDS011;59983;52.010;5.420;2022-12-01T04:37:32;43.80;;;23.48;;
72109;SDS011;59983;52.010;5.420;2022-12-01T04:39:58;39.70;;;21.77;;
72109;SDS011;59983;52.010;5.420;2022-12-01T04:42:25;36.13;;;21.58;;
72109;SDS011;59983;52.010;5.420;2022-12-01T04:44:52;38.30;;;22.10;;
72109;SDS011;59983;52.010;5.420;2022-12-01T04:47:19;42.70;;;23.48;;
72109;SDS011;59983;52.010;5.420;2022-12-01T04:49:45;40.00;;;23.50;;
72109;SDS011;59983;52.010;5.420;2022-12-01T04:52:12;37.63;;;23.13;;
72109;SDS011;59983;52.010;5.420;2022-12-01T04:54:38;40.05;;;24.65;;
72109;SDS011;59983;52.010;5.420;2022-12-01T04:57:05;40.20;;;22.30;;
72109;SDS011;59983;52.010;5.420;2022-12-01T04:59:32;41.88;;;23.77;;
72109;SDS011;59983;52.010;5.420;2022-12-01T05:01:58;39.47;;;22.50;;
72109;SDS011;59983;52.010;5.420;2022-12-01T05:04:25;37.78;;;22.83;;
72109;SDS011;59983;52.010;5.420;2022-12-01T05:06:52;43.08;;;24.42;;
72109;SDS011;59983;52.010;5.420;2022-12-01T05:09:20;43.03;;;25.90;;
72109;SDS011;59983;52.010;5.420;2022-12-01T05:11:47;40.85;;;24.05;;
72109;SDS011;59983;52.010;5.420;2022-12-01T05:14:13;38.67;;;22.33;;
72109;SDS011;59983;52.010;5.420;2022-12-01T05:16:40;40.28;;;23.98;;
72109;SDS011;59983;52.010;5.420;2022-12-01T05:19:06;43.42;;;24.30;;
72109;SDS011;59983;52.010;5.420;2022-12-01T05:21:51;35.77;;;21.80;;
72109;SDS011;59983;52.010;5.420;2022-12-01T05:24:18;38.65;;;22.08;;
72109;SDS011;59983;52.010;5.420;2022-12-01T05:26:46;41.97;;;23.95;;
72109;SDS011;59983;52.010;5.420;2022-12-01T05:29:13;34.60;;;21.52;;
72109;SDS011;59983;52.010;5.420;2022-12-01T05:31:39;39.42;;;22.88;;
72109;SDS011;59983;52.010;5.420;2022-12-01T05:34:06;42.70;;;23.40;;
72109;SDS011;59983;52.010;5.420;2022-12-01T05:36:33;44.78;;;23.63;;
72109;SDS011;59983;52.010;5.420;2022-12-01T05:39:00;41.58;;;23.70;;
72109;SDS011;59983;52.010;5.420;2022-12-01T05:41:27;37.88;;;22.13;;
72109;SDS011;59983;52.010;5.420;2022-12-01T05:43:53;39.92;;;23.50;;
72109;SDS011;59983;52.010;5.420;2022-12-01T05:46:20;39.83;;;23.07;;
72109;SDS011;59983;52.010;5.420;2022-12-01T05:48:46;39.65;;;23.02;;
72109;SDS011;59983;52.010;5.420;2022-12-01T05:51:13;45.03;;;23.92;;
72109;SDS011;59983;52.010;5.420;2022-12-01T05:53:41;36.22;;;23.73;;
72109;SDS011;59983;52.010;5.420;2022-12-01T05:56:08;43.00;;;23.25;;
72109;SDS011;59983;52.010;5.420;2022-12-01T05:58:35;38.20;;;22.63;;
72109;SDS011;59983;52.010;5.420;2022-12-01T06:01:02;43.83;;;22.73;;
72109;SDS011;59983;52.010;5.420;2022-12-01T06:03:29;47.28;;;24.65;;
72109;SDS011;59983;52.010;5.420;2022-12-01T06:05:55;42.65;;;23.42;;
72109;SDS011;59983;52.010;5.420;2022-12-01T06:08:22;46.05;;;24.27;;
72109;SDS011;59983;52.010;5.420;2022-12-01T06:10:48;38.43;;;22.20;;
72109;SDS011;59983;52.010;5.420;2022-12-01T06:13:15;44.67;;;22.77;;
72109;SDS011;59983;52.010;5.420;2022-12-01T06:15:41;39.28;;;23.85;;
72109;SDS011;59983;52.010;5.420;2022-12-01T06:18:07;55.15;;;27.20;;
72109;SDS011;59983;52.010;5.420;2022-12-01T06:20:34;48.03;;;24.63;;
72109;SDS011;59983;52.010;5.420;2022-12-01T06:23:01;51.43;;;25.70;;
72109;SDS011;59983;52.010;5.420;2022-12-01T06:25:28;47.30;;;24.48;;
72109;SDS011;59983;52.010;5.420;2022-12-01T06:27:55;47.15;;;24.75;;
72109;SDS011;59983;52.010;5.420;2022-12-01T06:30:23;42.80;;;23.50;;
72109;SDS011;59983;52.010;5.420;2022-12-01T06:32:50;48.00;;;24.67;;
72109;SDS011;59983;52.010;5.420;2022-12-01T06:35:17;46.50;;;22.47;;
72109;SDS011;59983;52.010;5.420;2022-12-01T06:37:43;51.13;;;23.52;;
72109;SDS011;59983;52.010;5.420;2022-12-01T06:40:10;44.40;;;22.58;;
72109;SDS011;59983;52.010;5.420;2022-12-01T06:42:37;46.72;;;25.33;;
72109;SDS011;59983;52.010;5.420;2022-12-01T06:45:03;43.72;;;24.90;;
72109;SDS011;59983;52.010;5.420;2022-12-01T06:47:30;43.67;;;23.27;;
72109;SDS011;59983;52.010;5.420;2022-12-01T06:49:57;46.30;;;25.10;;
72109;SDS011;59983;52.010;5.420;2022-12-01T06:52:23;42.33;;;25.27;;
72109;SDS011;59983;52.010;5.420;2022-12-01T06:54:50;46.17;;;24.10;;
72109;SDS011;59983;52.010;5.420;2022-12-01T06:57:16;47.55;;;23.55;;
72109;SDS011;59983;52.010;5.420;2022-12-01T06:59:43;44.67;;;22.10;;
72109;SDS011;59983;52.010;5.420;2022-12-01T07:02:10;43.45;;;23.05;;
72109;SDS011;59983;52.010;5.420;2022-12-01T07:04:37;44.97;;;23.45;;
72109;SDS011;59983;52.010;5.420;2022-12-01T07:07:04;46.80;;;23.75;;
72109;SDS011;59983;52.010;5.420;2022-12-01T07:09:31;48.72;;;23.92;;
72109;SDS011;59983;52.010;5.420;2022-12-01T07:11:58;47.83;;;24.40;;
72109;SDS011;59983;52.010;5.420;2022-12-01T07:14:25;46.58;;;23.40;;
72109;SDS011;59983;52.010;5.420;2022-12-01T07:16:51;51.75;;;23.95;;
72109;SDS011;59983;52.010;5.420;2022-12-01T07:19:18;53.40;;;24.08;;
72109;SDS011;59983;52.010;5.420;2022-12-01T07:21:45;40.20;;;23.02;;
72109;SDS011;59983;52.010;5.420;2022-12-01T07:24:11;48.90;;;23.97;;
72109;SDS011;59983;52.010;5.420;2022-12-01T07:26:38;48.88;;;23.55;;
72109;SDS011;59983;52.010;5.420;2022-12-01T07:29:06;45.05;;;24.65;;
72109;SDS011;59983;52.010;5.420;2022-12-01T07:31:34;47.03;;;23.52;;
72109;SDS011;59983;52.010;5.420;2022-12-01T07:34:02;44.88;;;24.50;;
72109;SDS011;59983;52.010;5.420;2022-12-01T07:36:29;51.37;;;25.67;;
72109;SDS011;59983;52.010;5.420;2022-12-01T07:38:55;53.22;;;25.77;;
72109;SDS011;59983;52.010;5.420;2022-12-01T07:41:22;53.40;;;24.58;;
72109;SDS011;59983;52.010;5.420;2022-12-01T07:43:49;49.28;;;23.85;;
72109;SDS011;59983;52.010;5.420;2022-12-01T07:46:19;48.63;;;26.30;;
72109;SDS011;59983;52.010;5.420;2022-12-01T07:48:49;48.23;;;25.77;;
72109;SDS011;59983;52.010;5.420;2022-12-01T07:51:17;49.63;;;28.05;;
72109;SDS011;59983;52.010;5.420;2022-12-01T07:53:45;49.03;;;26.75;;
72109;SDS011;59983;52.010;5.420;2022-12-01T07:56:14;53.53;;;25.63;;
72109;SDS011;59983;52.010;5.420;2022-12-01T07:58:41;48.63;;;27.13;;
72109;SDS011;59983;52.010;5.420;2022-12-01T08:01:11;50.13;;;26.83;;
72109;SDS011;59983;52.010;5.420;2022-12-01T08:03:40;52.90;;;26.40;;
72109;SDS011;59983;52.010;5.420;2022-12-01T08:06:07;53.10;;;26.05;;
72109;SDS011;59983;52.010;5.420;2022-12-01T08:08:35;58.80;;;27.13;;
72109;SDS011;59983;52.010;5.420;2022-12-01T08:11:04;55.22;;;27.40;;
72109;SDS011;59983;52.010;5.420;2022-12-01T08:13:32;53.13;;;27.03;;
72109;SDS011;59983;52.010;5.420;2022-12-01T08:16:01;56.35;;;28.08;;
72109;SDS011;59983;52.010;5.420;2022-12-01T08:18:29;53.70;;;25.65;;
72109;SDS011;59983;52.010;5.420;2022-12-01T08:20:56;53.53;;;27.77;;
72109;SDS011;59983;52.010;5.420;2022-12-01T08:23:23;58.45;;;28.50;;
72109;SDS011;59983;52.010;5.420;2022-12-01T08:25:49;58.10;;;28.87;;
72109;SDS011;59983;52.010;5.420;2022-12-01T08:28:18;59.63;;;28.58;;
72109;SDS011;59983;52.010;5.420;2022-12-01T08:30:45;59.03;;;29.33;;
72109;SDS011;59983;52.010;5.420;2022-12-01T08:33:12;66.32;;;29.35;;
72109;SDS011;59983;52.010;5.420;2022-12-01T08:35:39;59.28;;;28.98;;
72109;SDS011;59983;52.010;5.420;2022-12-01T08:38:05;65.87;;;28.80;;
72109;SDS011;59983;52.010;5.420;2022-12-01T08:40:32;64.50;;;30.15;;
72109;SDS011;59983;52.010;5.420;2022-12-01T08:42:58;62.15;;;29.23;;
72109;SDS011;59983;52.010;5.420;2022-12-01T08:45:25;59.08;;;28.17;;
72109;SDS011;59983;52.010;5.420;2022-12-01T08:47:51;70.63;;;31.00;;
72109;SDS011;59983;52.010;5.420;2022-12-01T08:50:19;58.60;;;28.70;;
72109;SDS011;59983;52.010;5.420;2022-12-01T08:52:45;58.83;;;28.15;;
72109;SDS011;59983;52.010;5.420;2022-12-01T08:55:11;67.50;;;31.25;;
72109;SDS011;59983;52.010;5.420;2022-12-01T08:57:38;59.33;;;28.88;;
72109;SDS011;59983;52.010;5.420;2022-12-01T09:00:05;63.35;;;28.67;;
72109;SDS011;59983;52.010;5.420;2022-12-01T09:02:32;64.80;;;28.73;;
72109;SDS011;59983;52.010;5.420;2022-12-01T09:04:58;68.05;;;31.58;;
72109;SDS011;59983;52.010;5.420;2022-12-01T09:07:25;61.75;;;29.98;;
72109;SDS011;59983;52.010;5.420;2022-12-01T09:09:52;65.90;;;30.92;;
72109;SDS011;59983;52.010;5.420;2022-12-01T09:12:18;69.70;;;32.42;;
72109;SDS011;59983;52.010;5.420;2022-12-01T09:14:45;67.87;;;31.03;;
72109;SDS011;59983;52.010;5.420;2022-12-01T09:17:15;59.13;;;29.90;;
72109;SDS011;59983;52.010;5.420;2022-12-01T09:19:43;63.90;;;29.42;;
72109;SDS011;59983;52.010;5.420;2022-12-01T09:22:10;59.78;;;29.88;;
72109;SDS011;59983;52.010;5.420;2022-12-01T09:24:37;53.58;;;28.08;;
72109;SDS011;59983;52.010;5.420;2022-12-01T09:27:04;61.73;;;29.97;;
72109;SDS011;59983;52.010;5.420;2022-12-01T09:29:31;56.72;;;29.90;;
72109;SDS011;59983;52.010;5.420;2022-12-01T09:31:58;69.22;;;31.80;;
72109;SDS011;59983;52.010;5.420;2022-12-01T09:34:25;65.03;;;29.60;;
72109;SDS011;59983;52.010;5.420;2022-12-01T09:36:56;60.13;;;30.17;;
72109;SDS011;59983;52.010;5.420;2022-12-01T09:39:23;61.97;;;31.37;;
72109;SDS011;59983;52.010;5.420;2022-12-01T09:44:43;59.63;;;30.55;;
72109;SDS011;59983;52.010;5.420;2022-12-01T09:47:20;61.28;;;31.25;;
72109;SDS011;59983;52.010;5.420;2022-12-01T09:52:42;59.13;;;29.20;;
72109;SDS011;59983;52.010;5.420;2022-12-01T09:55:12;60.15;;;29.55;;
72109;SDS011;59983;52.010;5.420;2022-12-01T09:57:41;62.30;;;30.85;;
72109;SDS011;59983;52.010;5.420;2022-12-01T10:00:13;60.05;;;30.13;;
72109;SDS011;59983;52.010;5.420;2022-12-01T10:02:47;60.80;;;31.13;;
72109;SDS011;59983;52.010;5.420;2022-12-01T10:05:18;65.10;;;31.77;;
72109;SDS011;59983;52.010;5.420;2022-12-01T10:07:48;69.20;;;30.30;;
72109;SDS011;59983;52.010;5.420;2022-12-01T10:12:49;60.38;;;30.08;;
72109;SDS011;59983;52.010;5.420;2022-12-01T10:18:20;64.60;;;30.50;;
72109;SDS011;59983;52.010;5.420;2022-12-01T10:21:05;60.63;;;28.90;;
72109;SDS011;59983;52.010;5.420;2022-12-01T10:24:01;60.08;;;30.25;;
72109;SDS011;59983;52.010;5.420;2022-12-01T10:34:48;62.22;;;30.95;;
72109;SDS011;59983;52.010;5.420;2022-12-01T10:37:21;66.68;;;33.15;;
72109;SDS011;59983;52.010;5.420;2022-12-01T10:39:51;66.05;;;31.15;;
72109;SDS011;59983;52.010;5.420;2022-12-01T10:42:27;61.03;;;31.92;;
72109;SDS011;59983;52.010;5.420;2022-12-01T10:45:04;66.70;;;31.77;;
72109;SDS011;59983;52.010;5.420;2022-12-01T10:47:35;61.78;;;31.95;;
72109;SDS011;59983;52.010;5.420;2022-12-01T10:50:02;64.93;;;32.25;;
72109;SDS011;59983;52.010;5.420;2022-12-01T10:52:36;64.55;;;31.80;;
72109;SDS011;59983;52.010;5.420;2022-12-01T10:55:23;68.55;;;33.35;;
72109;SDS011;59983;52.010;5.420;2022-12-01T10:57:56;66.77;;;31.63;;
72109;SDS011;59983;52.010;5.420;2022-12-01T11:00:32;58.88;;;30.08;;
72109;SDS011;59983;52.010;5.420;2022-12-01T11:03:24;60.58;;;31.30;;
72109;SDS011;59983;52.010;5.420;2022-12-01T11:05:55;62.83;;;29.88;;
72109;SDS011;59983;52.010;5.420;2022-12-01T11:08:28;53.97;;;29.15;;
72109;SDS011;59983;52.010;5.420;2022-12-01T11:10:56;60.93;;;30.70;;
72109;SDS011;59983;52.010;5.420;2022-12-01T11:13:23;64.40;;;30.05;;
72109;SDS011;59983;52.010;5.420;2022-12-01T11:15:59;59.85;;;31.17;;
72109;SDS011;59983;52.010;5.420;2022-12-01T11:18:30;59.70;;;32.08;;
72109;SDS011;59983;52.010;5.420;2022-12-01T11:23:49;57.97;;;30.80;;
72109;SDS011;59983;52.010;5.420;2022-12-01T11:28:52;56.92;;;31.45;;
72109;SDS011;59983;52.010;5.420;2022-12-01T11:31:22;58.83;;;30.45;;
72109;SDS011;59983;52.010;5.420;2022-12-01T11:34:03;54.17;;;28.65;;
72109;SDS011;59983;52.010;5.420;2022-12-01T11:39:17;57.33;;;29.88;;
72109;SDS011;59983;52.010;5.420;2022-12-01T11:41:57;52.40;;;30.80;;
72109;SDS011;59983;52.010;5.420;2022-12-01T11:44:25;52.58;;;28.67;;
72109;SDS011;59983;52.010;5.420;2022-12-01T11:47:15;54.42;;;26.95;;
72109;SDS011;59983;52.010;5.420;2022-12-01T11:49:56;51.60;;;27.17;;
72109;SDS011;59983;52.010;5.420;2022-12-01T11:54:54;56.35;;;28.45;;
72109;SDS011;59983;52.010;5.420;2022-12-01T11:57:26;51.17;;;29.10;;
72109;SDS011;59983;52.010;5.420;2022-12-01T12:00:00;51.75;;;28.40;;
72109;SDS011;59983;52.010;5.420;2022-12-01T12:02:37;54.30;;;28.57;;
72109;SDS011;59983;52.010;5.420;2022-12-01T12:07:46;57.10;;;29.30;;
72109;SDS011;59983;52.010;5.420;2022-12-01T12:21:33;50.17;;;26.40;;
72109;SDS011;59983;52.010;5.420;2022-12-01T12:38:16;46.80;;;26.95;;
72109;SDS011;59983;52.010;5.420;2022-12-01T12:40:40;44.22;;;25.58;;
72109;SDS011;59983;52.010;5.420;2022-12-01T12:46:01;53.00;;;26.75;;
72109;SDS011;59983;52.010;5.420;2022-12-01T12:51:49;40.53;;;24.17;;
72109;SDS011;59983;52.010;5.420;2022-12-01T12:54:26;47.28;;;25.45;;
72109;SDS011;59983;52.010;5.420;2022-12-01T12:57:05;45.50;;;26.63;;
72109;SDS011;59983;52.010;5.420;2022-12-01T13:05:32;43.03;;;23.42;;
72109;SDS011;59983;52.010;5.420;2022-12-01T13:08:22;42.83;;;26.27;;
72109;SDS011;59983;52.010;5.420;2022-12-01T13:10:58;43.37;;;24.67;;
72109;SDS011;59983;52.010;5.420;2022-12-01T13:13:43;46.70;;;26.33;;
72109;SDS011;59983;52.010;5.420;2022-12-01T13:16:39;43.97;;;25.08;;
72109;SDS011;59983;52.010;5.420;2022-12-01T13:21:42;44.80;;;24.50;;
72109;SDS011;59983;52.010;5.420;2022-12-01T13:24:14;37.97;;;23.83;;
72109;SDS011;59983;52.010;5.420;2022-12-01T13:26:50;40.90;;;24.50;;
72109;SDS011;59983;52.010;5.420;2022-12-01T13:29:21;46.80;;;26.13;;
72109;SDS011;59983;52.010;5.420;2022-12-01T13:31:50;40.05;;;23.33;;
72109;SDS011;59983;52.010;5.420;2022-12-01T13:34:23;43.03;;;25.33;;
72109;SDS011;59983;52.010;5.420;2022-12-01T13:36:54;46.43;;;25.53;;
72109;SDS011;59983;52.010;5.420;2022-12-01T13:39:25;41.42;;;25.33;;
72109;SDS011;59983;52.010;5.420;2022-12-01T13:44:53;47.05;;;25.13;;
72109;SDS011;59983;52.010;5.420;2022-12-01T13:50:53;44.77;;;24.17;;
72109;SDS011;59983;52.010;5.420;2022-12-01T13:56:19;40.55;;;24.45;;
72109;SDS011;59983;52.010;5.420;2022-12-01T14:08:59;42.33;;;24.38;;
72109;SDS011;59983;52.010;5.420;2022-12-01T14:11:30;39.40;;;24.38;;
72109;SDS011;59983;52.010;5.420;2022-12-01T14:14:02;47.05;;;25.15;;
72109;SDS011;59983;52.010;5.420;2022-12-01T14:16:47;41.47;;;24.30;;
72109;SDS011;59983;52.010;5.420;2022-12-01T14:21:53;40.17;;;24.50;;
72109;SDS011;59983;52.010;5.420;2022-12-01T14:26:53;43.55;;;24.65;;
72109;SDS011;59983;52.010;5.420;2022-12-01T14:29:27;49.07;;;25.80;;
72109;SDS011;59983;52.010;5.420;2022-12-01T14:34:28;43.70;;;25.40;;
72109;SDS011;59983;52.010;5.420;2022-12-01T14:37:04;46.10;;;25.25;;
72109;SDS011;59983;52.010;5.420;2022-12-01T14:39:39;41.42;;;24.98;;
72109;SDS011;59983;52.010;5.420;2022-12-01T14:45:15;38.70;;;25.30;;
72109;SDS011;59983;52.010;5.420;2022-12-01T14:48:03;42.58;;;25.45;;
72109;SDS011;59983;52.010;5.420;2022-12-01T14:50:35;50.30;;;27.67;;
72109;SDS011;59983;52.010;5.420;2022-12-01T14:55:59;45.17;;;27.23;;
72109;SDS011;59983;52.010;5.420;2022-12-01T14:58:33;44.08;;;26.17;;
72109;SDS011;59983;52.010;5.420;2022-12-01T15:01:07;41.17;;;23.65;;
72109;SDS011;59983;52.010;5.420;2022-12-01T15:03:42;40.17;;;24.25;;
72109;SDS011;59983;52.010;5.420;2022-12-01T15:06:19;38.78;;;23.15;;
72109;SDS011;59983;52.010;5.420;2022-12-01T15:11:50;41.63;;;23.88;;
72109;SDS011;59983;52.010;5.420;2022-12-01T15:16:58;41.85;;;25.35;;
72109;SDS011;59983;52.010;5.420;2022-12-01T15:19:28;38.08;;;25.42;;
72109;SDS011;59983;52.010;5.420;2022-12-01T15:22:11;39.53;;;23.47;;
72109;SDS011;59983;52.010;5.420;2022-12-01T15:24:39;41.28;;;25.05;;
72109;SDS011;59983;52.010;5.420;2022-12-01T15:27:26;43.92;;;23.77;;
72109;SDS011;59983;52.010;5.420;2022-12-01T15:29:57;42.58;;;26.50;;
72109;SDS011;59983;52.010;5.420;2022-12-01T15:32:30;49.95;;;30.13;;
72109;SDS011;59983;52.010;5.420;2022-12-01T15:34:59;49.57;;;30.63;;
72109;SDS011;59983;52.010;5.420;2022-12-01T15:37:29;43.13;;;28.75;;
72109;SDS011;59983;52.010;5.420;2022-12-01T15:40:05;45.70;;;29.92;;
72109;SDS011;59983;52.010;5.420;2022-12-01T15:43:04;49.28;;;29.75;;
72109;SDS011;59983;52.010;5.420;2022-12-01T15:45:47;53.85;;;32.08;;
72109;SDS011;59983;52.010;5.420;2022-12-01T15:48:22;52.10;;;33.73;;
72109;SDS011;59983;52.010;5.420;2022-12-01T15:50:59;52.15;;;34.42;;
72109;SDS011;59983;52.010;5.420;2022-12-01T15:53:29;50.78;;;33.35;;
72109;SDS011;59983;52.010;5.420;2022-12-01T15:55:58;46.97;;;30.50;;
72109;SDS011;59983;52.010;5.420;2022-12-01T15:58:28;46.47;;;30.00;;
72109;SDS011;59983;52.010;5.420;2022-12-01T16:00:58;43.87;;;26.83;;
72109;SDS011;59983;52.010;5.420;2022-12-01T16:03:27;47.13;;;29.23;;
72109;SDS011;59983;52.010;5.420;2022-12-01T16:05:54;51.45;;;30.30;;
72109;SDS011;59983;52.010;5.420;2022-12-01T16:08:25;50.72;;;28.23;;
72109;SDS011;59983;52.010;5.420;2022-12-01T16:11:09;47.63;;;28.70;;
72109;SDS011;59983;52.010;5.420;2022-12-01T16:13:37;46.30;;;26.47;;
72109;SDS011;59983;52.010;5.420;2022-12-01T16:19:30;50.75;;;28.42;;
72109;SDS011;59983;52.010;5.420;2022-12-01T16:22:00;47.58;;;31.50;;
72109;SDS011;59983;52.010;5.420;2022-12-01T16:27:21;55.07;;;30.27;;
72109;SDS011;59983;52.010;5.420;2022-12-01T16:29:51;44.92;;;28.50;;
72109;SDS011;59983;52.010;5.420;2022-12-01T16:32:36;47.03;;;29.38;;
72109;SDS011;59983;52.010;5.420;2022-12-01T16:35:06;49.28;;;30.52;;
72109;SDS011;59983;52.010;5.420;2022-12-01T16:37:48;51.13;;;28.65;;
72109;SDS011;59983;52.010;5.420;2022-12-01T16:40:14;51.33;;;31.40;;
72109;SDS011;59983;52.010;5.420;2022-12-01T16:42:44;47.75;;;29.50;;
72109;SDS011;59983;52.010;5.420;2022-12-01T16:45:12;47.60;;;29.23;;
72109;SDS011;59983;52.010;5.420;2022-12-01T16:47:40;47.17;;;27.15;;
72109;SDS011;59983;52.010;5.420;2022-12-01T16:50:17;44.80;;;26.95;;
72109;SDS011;59983;52.010;5.420;2022-12-01T16:52:45;46.07;;;27.10;;
72109;SDS011;59983;52.010;5.420;2022-12-01T16:57:56;51.85;;;27.60;;
72109;SDS011;59983;52.010;5.420;2022-12-01T17:00:23;86.65;;;47.22;;
72109;SDS011;59983;52.010;5.420;2022-12-01T17:02:50;56.17;;;32.78;;
72109;SDS011;59983;52.010;5.420;2022-12-01T17:05:17;53.50;;;34.57;;
72109;SDS011;59983;52.010;5.420;2022-12-01T17:07:44;46.17;;;29.73;;
72109;SDS011;59983;52.010;5.420;2022-12-01T17:10:11;49.63;;;29.27;;
72109;SDS011;59983;52.010;5.420;2022-12-01T17:12:38;46.92;;;28.08;;
72109;SDS011;59983;52.010;5.420;2022-12-01T17:15:04;49.35;;;28.55;;
72109;SDS011;59983;52.010;5.420;2022-12-01T17:17:31;51.23;;;27.70;;
72109;SDS011;59983;52.010;5.420;2022-12-01T17:19:58;46.63;;;27.33;;
72109;SDS011;59983;52.010;5.420;2022-12-01T17:22:25;45.38;;;28.23;;